sensor_id;sensor_type;location;lat;lon;timestamp;P1;durP1;ratioP1;P2;durP2;ratioP2
2868;SDS011;1442;47.448;8.582;2023-04-25T00:02:25;6.82;;;3.70;;
2868;SDS011;1442;47.448;8.582;2023-04-25T00:04:53;7.15;;;3.85;;
2868;SDS011;1442;47.448;8.582;2023-04-25T00:07:24;10.27;;;3.92;;
2868;SDS011;1442;47.448;8.582;2023-04-25T00:09:51;7.18;;;3.90;;
2868;SDS011;1442;47.448;8.582;2023-04-25T00:12:19;6.93;;;3.38;;
2868;SDS011;1442;47.448;8.582;2023-04-25T00:14:47;5.32;;;3.53;;
2868;SDS011;1442;47.448;8.582;2023-04-25T00:17:16;8.02;;;3.45;;
2868;SDS011;1442;47.448;8.582;2023-04-25T00:19:45;5.20;;;4.10;;
2868;SDS011;1442;47.448;8.582;2023-04-25T00:22:13;7.43;;;3.38;;
2868;SDS011;1442;47.448;8.582;2023-04-25T00:24:40;7.32;;;3.40;;
2868;SDS011;1442;47.448;8.582;2023-04-25T00:27:07;6.93;;;3.40;;
2868;SDS011;1442;47.448;8.582;2023-04-25T00:29:35;7.15;;;3.45;;
2868;SDS011;1442;47.448;8.582;2023-04-25T00:32:02;4.75;;;3.20;;
2868;SDS011;1442;47.448;8.582;2023-04-25T00:34:29;3.38;;;2.97;;
2868;SDS011;1442;47.448;8.582;2023-04-25T00:36:57;5.18;;;2.80;;
2868;SDS011;1442;47.448;8.582;2023-04-25T00:39:26;4.75;;;2.85;;
2868;SDS011;1442;47.448;8.582;2023-04-25T00:41:54;7.25;;;3.05;;
2868;SDS011;1442;47.448;8.582;2023-04-25T00:44:21;6.55;;;2.72;;
2868;SDS011;1442;47.448;8.582;2023-04-25T00:46:49;4.55;;;2.38;;
2868;SDS011;1442;47.448;8.582;2023-04-25T00:49:16;3.03;;;2.20;;
2868;SDS011;1442;47.448;8.582;2023-04-25T00:51:43;8.90;;;2.47;;
2868;SDS011;1442;47.448;8.582;2023-04-25T00:54:12;5.38;;;2.38;;
2868;SDS011;1442;47.448;8.582;2023-04-25T00:56:40;4.72;;;2.33;;
2868;SDS011;1442;47.448;8.582;2023-04-25T00:59:07;5.85;;;2.42;;
2868;SDS011;1442;47.448;8.582;2023-04-25T01:01:36;4.20;;;2.58;;
2868;SDS011;1442;47.448;8.582;2023-04-25T01:04:04;3.80;;;2.63;;
2868;SDS011;1442;47.448;8.582;2023-04-25T01:06:31;6.15;;;2.72;;
2868;SDS011;1442;47.448;8.582;2023-04-25T01:08:58;4.55;;;2.25;;
2868;SDS011;1442;47.448;8.582;2023-04-25T01:11:27;6.85;;;2.70;;
2868;SDS011;1442;47.448;8.582;2023-04-25T01:13:54;3.92;;;2.40;;
2868;SDS011;1442;47.448;8.582;2023-04-25T01:16:22;4.78;;;2.80;;
2868;SDS011;1442;47.448;8.582;2023-04-25T01:18:49;6.45;;;3.20;;
2868;SDS011;1442;47.448;8.582;2023-04-25T01:21:18;6.45;;;2.63;;
2868;SDS011;1442;47.448;8.582;2023-04-25T01:23:45;5.03;;;2.80;;
2868;SDS011;1442;47.448;8.582;2023-04-25T01:26:13;5.07;;;2.50;;
2868;SDS011;1442;47.448;8.582;2023-04-25T01:28:40;5.68;;;2.65;;
2868;SDS011;1442;47.448;8.582;2023-04-25T01:31:07;6.40;;;2.97;;
2868;SDS011;1442;47.448;8.582;2023-04-25T01:33:35;6.35;;;3.13;;
2868;SDS011;1442;47.448;8.582;2023-04-25T01:36:02;4.22;;;2.63;;
2868;SDS011;1442;47.448;8.582;2023-04-25T01:38:31;4.00;;;2.88;;
2868;SDS011;1442;47.448;8.582;2023-04-25T01:40:58;5.60;;;2.83;;
2868;SDS011;1442;47.448;8.582;2023-04-25T01:43:26;3.85;;;2.80;;
2868;SDS011;1442;47.448;8.582;2023-04-25T01:45:53;5.28;;;2.90;;
2868;SDS011;1442;47.448;8.582;2023-04-25T01:48:20;5.25;;;2.53;;
2868;SDS011;1442;47.448;8.582;2023-04-25T01:50:47;4.38;;;2.50;;
2868;SDS011;1442;47.448;8.582;2023-04-25T01:53:14;4.72;;;2.70;;
2868;SDS011;1442;47.448;8.582;2023-04-25T01:55:43;4.13;;;2.50;;
2868;SDS011;1442;47.448;8.582;2023-04-25T01:58:10;6.78;;;3.05;;
2868;SDS011;1442;47.448;8.582;2023-04-25T02:00:38;6.30;;;2.78;;
2868;SDS011;1442;47.448;8.582;2023-04-25T02:03:05;4.03;;;2.70;;
2868;SDS011;1442;47.448;8.582;2023-04-25T02:05:36;4.18;;;2.40;;
2868;SDS011;1442;47.448;8.582;2023-04-25T02:08:04;5.97;;;2.40;;
2868;SDS011;1442;47.448;8.582;2023-04-25T02:10:31;7.28;;;2.85;;
2868;SDS011;1442;47.448;8.582;2023-04-25T02:13:00;8.00;;;3.40;;
2868;SDS011;1442;47.448;8.582;2023-04-25T02:15:27;11.98;;;2.97;;
2868;SDS011;1442;47.448;8.582;2023-04-25T02:17:54;6.13;;;3.20;;
2868;SDS011;1442;47.448;8.582;2023-04-25T02:20:23;6.03;;;2.92;;
2868;SDS011;1442;47.448;8.582;2023-04-25T02:22:50;6.28;;;3.30;;
2868;SDS011;1442;47.448;8.582;2023-04-25T02:25:18;7.80;;;3.08;;
2868;SDS011;1442;47.448;8.582;2023-04-25T02:27:46;6.28;;;3.30;;
2868;SDS011;1442;47.448;8.582;2023-04-25T02:30:14;5.40;;;2.90;;
2868;SDS011;1442;47.448;8.582;2023-04-25T02:32:41;9.75;;;3.13;;
2868;SDS011;1442;47.448;8.582;2023-04-25T02:35:09;7.85;;;2.55;;
2868;SDS011;1442;47.448;8.582;2023-04-25T02:37:36;6.88;;;2.65;;
2868;SDS011;1442;47.448;8.582;2023-04-25T02:40:04;5.28;;;2.58;;
2868;SDS011;1442;47.448;8.582;2023-04-25T02:42:31;4.78;;;2.63;;
2868;SDS011;1442;47.448;8.582;2023-04-25T02:44:59;6.97;;;2.90;;
2868;SDS011;1442;47.448;8.582;2023-04-25T02:47:27;5.18;;;2.80;;
2868;SDS011;1442;47.448;8.582;2023-04-25T02:49:54;6.78;;;2.90;;
2868;SDS011;1442;47.448;8.582;2023-04-25T02:52:23;4.13;;;2.40;;
2868;SDS011;1442;47.448;8.582;2023-04-25T02:54:50;9.30;;;2.83;;
2868;SDS011;1442;47.448;8.582;2023-04-25T02:57:17;6.20;;;2.90;;
2868;SDS011;1442;47.448;8.582;2023-04-25T02:59:44;6.78;;;2.33;;
2868;SDS011;1442;47.448;8.582;2023-04-25T03:02:11;5.43;;;2.85;;
2868;SDS011;1442;47.448;8.582;2023-04-25T03:04:40;3.33;;;2.42;;
2868;SDS011;1442;47.448;8.582;2023-04-25T03:07:07;6.88;;;2.78;;
2868;SDS011;1442;47.448;8.582;2023-04-25T03:09:35;4.65;;;2.80;;
2868;SDS011;1442;47.448;8.582;2023-04-25T03:12:02;5.70;;;2.63;;
2868;SDS011;1442;47.448;8.582;2023-04-25T03:14:29;5.35;;;2.72;;
2868;SDS011;1442;47.448;8.582;2023-04-25T03:16:56;6.47;;;2.78;;
2868;SDS011;1442;47.448;8.582;2023-04-25T03:19:24;5.90;;;2.85;;
2868;SDS011;1442;47.448;8.582;2023-04-25T03:24:20;9.52;;;3.05;;
2868;SDS011;1442;47.448;8.582;2023-04-25T03:26:47;8.90;;;2.78;;
2868;SDS011;1442;47.448;8.582;2023-04-25T03:29:14;5.93;;;2.70;;
2868;SDS011;1442;47.448;8.582;2023-04-25T03:31:41;7.03;;;2.97;;
2868;SDS011;1442;47.448;8.582;2023-04-25T03:34:08;8.68;;;2.97;;
2868;SDS011;1442;47.448;8.582;2023-04-25T03:36:35;5.70;;;3.25;;
2868;SDS011;1442;47.448;8.582;2023-04-25T03:39:02;9.05;;;2.72;;
2868;SDS011;1442;47.448;8.582;2023-04-25T03:41:31;10.60;;;3.10;;
2868;SDS011;1442;47.448;8.582;2023-04-25T03:43:58;6.65;;;2.72;;
2868;SDS011;1442;47.448;8.582;2023-04-25T03:46:25;6.22;;;3.22;;
2868;SDS011;1442;47.448;8.582;2023-04-25T03:48:52;7.75;;;3.05;;
2868;SDS011;1442;47.448;8.582;2023-04-25T03:51:19;4.20;;;2.72;;
2868;SDS011;1442;47.448;8.582;2023-04-25T03:56:13;6.22;;;2.97;;
2868;SDS011;1442;47.448;8.582;2023-04-25T03:58:42;3.95;;;2.35;;
2868;SDS011;1442;47.448;8.582;2023-04-25T04:01:09;7.38;;;3.15;;
2868;SDS011;1442;47.448;8.582;2023-04-25T04:03:36;4.82;;;3.00;;
2868;SDS011;1442;47.448;8.582;2023-04-25T04:06:03;11.60;;;3.17;;
2868;SDS011;1442;47.448;8.582;2023-04-25T04:15:53;7.15;;;2.60;;
2868;SDS011;1442;47.448;8.582;2023-04-25T04:18:22;5.07;;;2.90;;
2868;SDS011;1442;47.448;8.582;2023-04-25T04:20:49;7.63;;;3.50;;
2868;SDS011;1442;47.448;8.582;2023-04-25T04:23:16;3.35;;;2.65;;
2868;SDS011;1442;47.448;8.582;2023-04-25T04:25:43;7.80;;;3.05;;
2868;SDS011;1442;47.448;8.582;2023-04-25T04:28:11;5.70;;;3.03;;
2868;SDS011;1442;47.448;8.582;2023-04-25T04:30:39;4.75;;;3.83;;
2868;SDS011;1442;47.448;8.582;2023-04-25T04:33:08;7.47;;;3.10;;
2868;SDS011;1442;47.448;8.582;2023-04-25T04:35:36;5.28;;;2.95;;
2868;SDS011;1442;47.448;8.582;2023-04-25T04:38:03;7.25;;;3.65;;
2868;SDS011;1442;47.448;8.582;2023-04-25T04:40:30;9.70;;;3.38;;
2868;SDS011;1442;47.448;8.582;2023-04-25T04:42:57;4.97;;;3.15;;
2868;SDS011;1442;47.448;8.582;2023-04-25T04:45:24;7.90;;;3.30;;
2868;SDS011;1442;47.448;8.582;2023-04-25T04:47:52;9.75;;;3.00;;
2868;SDS011;1442;47.448;8.582;2023-04-25T04:50:21;9.40;;;3.20;;
2868;SDS011;1442;47.448;8.582;2023-04-25T04:52:48;9.38;;;3.13;;
2868;SDS011;1442;47.448;8.582;2023-04-25T04:55:15;6.40;;;3.88;;
2868;SDS011;1442;47.448;8.582;2023-04-25T04:57:43;9.25;;;3.80;;
2868;SDS011;1442;47.448;8.582;2023-04-25T05:00:10;7.88;;;3.65;;
2868;SDS011;1442;47.448;8.582;2023-04-25T05:02:38;5.97;;;3.20;;
2868;SDS011;1442;47.448;8.582;2023-04-25T05:05:05;6.55;;;3.70;;
2868;SDS011;1442;47.448;8.582;2023-04-25T05:07:34;9.50;;;3.33;;
2868;SDS011;1442;47.448;8.582;2023-04-25T05:10:01;8.73;;;3.38;;
2868;SDS011;1442;47.448;8.582;2023-04-25T05:12:28;4.78;;;3.30;;
2868;SDS011;1442;47.448;8.582;2023-04-25T05:14:55;12.52;;;3.45;;
2868;SDS011;1442;47.448;8.582;2023-04-25T05:17:22;9.02;;;3.88;;
2868;SDS011;1442;47.448;8.582;2023-04-25T05:19:50;7.60;;;3.72;;
2868;SDS011;1442;47.448;8.582;2023-04-25T05:22:17;14.55;;;3.50;;
2868;SDS011;1442;47.448;8.582;2023-04-25T05:24:46;10.32;;;3.95;;
2868;SDS011;1442;47.448;8.582;2023-04-25T05:27:13;10.68;;;3.90;;
2868;SDS011;1442;47.448;8.582;2023-04-25T05:29:40;7.63;;;3.28;;
2868;SDS011;1442;47.448;8.582;2023-04-25T05:32:07;7.25;;;3.97;;
2868;SDS011;1442;47.448;8.582;2023-04-25T05:34:35;9.82;;;3.60;;
2868;SDS011;1442;47.448;8.582;2023-04-25T05:37:02;4.97;;;3.13;;
2868;SDS011;1442;47.448;8.582;2023-04-25T05:39:29;8.85;;;3.65;;
2868;SDS011;1442;47.448;8.582;2023-04-25T05:41:58;5.63;;;3.65;;
2868;SDS011;1442;47.448;8.582;2023-04-25T05:44:26;8.00;;;3.60;;
2868;SDS011;1442;47.448;8.582;2023-04-25T05:46:53;5.25;;;2.90;;
2868;SDS011;1442;47.448;8.582;2023-04-25T05:49:20;8.68;;;3.47;;
2868;SDS011;1442;47.448;8.582;2023-04-25T05:51:47;6.95;;;2.70;;
2868;SDS011;1442;47.448;8.582;2023-04-25T05:54:15;5.13;;;2.70;;
2868;SDS011;1442;47.448;8.582;2023-04-25T05:56:42;10.57;;;3.15;;
2868;SDS011;1442;47.448;8.582;2023-04-25T05:59:11;9.35;;;2.75;;
2868;SDS011;1442;47.448;8.582;2023-04-25T06:01:38;9.88;;;3.70;;
2868;SDS011;1442;47.448;8.582;2023-04-25T06:04:05;9.75;;;3.55;;
2868;SDS011;1442;47.448;8.582;2023-04-25T06:06:32;11.15;;;5.00;;
2868;SDS011;1442;47.448;8.582;2023-04-25T06:08:59;8.07;;;4.13;;
2868;SDS011;1442;47.448;8.582;2023-04-25T06:11:26;10.55;;;3.95;;
2868;SDS011;1442;47.448;8.582;2023-04-25T06:13:53;7.65;;;3.72;;
2868;SDS011;1442;47.448;8.582;2023-04-25T06:16:22;8.45;;;3.17;;
2868;SDS011;1442;47.448;8.582;2023-04-25T06:18:50;6.68;;;3.20;;
2868;SDS011;1442;47.448;8.582;2023-04-25T06:21:18;9.95;;;3.00;;
2868;SDS011;1442;47.448;8.582;2023-04-25T06:23:45;13.77;;;4.05;;
2868;SDS011;1442;47.448;8.582;2023-04-25T06:26:12;5.93;;;3.10;;
2868;SDS011;1442;47.448;8.582;2023-04-25T06:28:39;8.85;;;3.10;;
2868;SDS011;1442;47.448;8.582;2023-04-25T06:31:06;6.47;;;3.20;;
2868;SDS011;1442;47.448;8.582;2023-04-25T06:33:35;8.82;;;3.13;;
2868;SDS011;1442;47.448;8.582;2023-04-25T06:36:02;11.65;;;2.63;;
2868;SDS011;1442;47.448;8.582;2023-04-25T06:38:29;7.82;;;3.13;;
2868;SDS011;1442;47.448;8.582;2023-04-25T06:40:56;9.75;;;2.92;;
2868;SDS011;1442;47.448;8.582;2023-04-25T06:43:23;4.38;;;2.80;;
2868;SDS011;1442;47.448;8.582;2023-04-25T06:45:50;6.45;;;3.92;;
2868;SDS011;1442;47.448;8.582;2023-04-25T06:48:17;7.45;;;3.55;;
2868;SDS011;1442;47.448;8.582;2023-04-25T06:50:46;6.47;;;3.50;;
2868;SDS011;1442;47.448;8.582;2023-04-25T06:53:13;8.43;;;4.10;;
2868;SDS011;1442;47.448;8.582;2023-04-25T06:55:40;6.25;;;2.95;;
2868;SDS011;1442;47.448;8.582;2023-04-25T06:58:07;5.53;;;3.60;;
2868;SDS011;1442;47.448;8.582;2023-04-25T07:00:35;9.02;;;2.90;;
2868;SDS011;1442;47.448;8.582;2023-04-25T07:03:02;7.18;;;2.60;;
2868;SDS011;1442;47.448;8.582;2023-04-25T07:05:29;6.32;;;2.63;;
2868;SDS011;1442;47.448;8.582;2023-04-25T07:07:57;7.43;;;2.50;;
2868;SDS011;1442;47.448;8.582;2023-04-25T07:10:25;3.70;;;2.75;;
2868;SDS011;1442;47.448;8.582;2023-04-25T07:12:52;4.32;;;2.72;;
2868;SDS011;1442;47.448;8.582;2023-04-25T07:15:19;5.50;;;2.92;;
2868;SDS011;1442;47.448;8.582;2023-04-25T07:17:46;5.10;;;2.67;;
2868;SDS011;1442;47.448;8.582;2023-04-25T07:20:13;4.75;;;2.47;;
2868;SDS011;1442;47.448;8.582;2023-04-25T07:22:41;6.70;;;2.78;;
2868;SDS011;1442;47.448;8.582;2023-04-25T07:25:10;6.15;;;2.30;;
2868;SDS011;1442;47.448;8.582;2023-04-25T07:27:37;7.13;;;2.28;;
2868;SDS011;1442;47.448;8.582;2023-04-25T07:30:06;5.32;;;2.28;;
2868;SDS011;1442;47.448;8.582;2023-04-25T07:32:33;3.47;;;1.95;;
2868;SDS011;1442;47.448;8.582;2023-04-25T07:35:00;3.78;;;1.83;;
2868;SDS011;1442;47.448;8.582;2023-04-25T07:37:28;4.53;;;1.83;;
2868;SDS011;1442;47.448;8.582;2023-04-25T07:39:55;4.18;;;1.65;;
2868;SDS011;1442;47.448;8.582;2023-04-25T07:42:24;3.50;;;1.75;;
2868;SDS011;1442;47.448;8.582;2023-04-25T07:44:51;3.55;;;1.50;;
2868;SDS011;1442;47.448;8.582;2023-04-25T07:47:18;4.43;;;2.03;;
2868;SDS011;1442;47.448;8.582;2023-04-25T07:49:45;3.65;;;1.67;;
2868;SDS011;1442;47.448;8.582;2023-04-25T07:52:12;3.25;;;1.52;;
2868;SDS011;1442;47.448;8.582;2023-04-25T07:54:39;4.28;;;1.30;;
2868;SDS011;1442;47.448;8.582;2023-04-25T07:57:06;4.05;;;1.73;;
2868;SDS011;1442;47.448;8.582;2023-04-25T07:59:35;3.95;;;1.83;;
2868;SDS011;1442;47.448;8.582;2023-04-25T08:02:02;5.72;;;1.42;;
2868;SDS011;1442;47.448;8.582;2023-04-25T08:04:29;3.70;;;1.50;;
2868;SDS011;1442;47.448;8.582;2023-04-25T08:06:56;5.82;;;1.50;;
2868;SDS011;1442;47.448;8.582;2023-04-25T08:09:24;5.30;;;1.98;;
2868;SDS011;1442;47.448;8.582;2023-04-25T08:11:51;4.20;;;2.00;;
2868;SDS011;1442;47.448;8.582;2023-04-25T08:14:18;2.95;;;1.65;;
2868;SDS011;1442;47.448;8.582;2023-04-25T08:16:46;6.68;;;1.85;;
2868;SDS011;1442;47.448;8.582;2023-04-25T08:19:14;2.65;;;1.58;;
2868;SDS011;1442;47.448;8.582;2023-04-25T08:21:41;3.83;;;1.60;;
2868;SDS011;1442;47.448;8.582;2023-04-25T08:24:08;2.00;;;1.55;;
2868;SDS011;1442;47.448;8.582;2023-04-25T08:26:35;4.50;;;1.85;;
2868;SDS011;1442;47.448;8.582;2023-04-25T08:29:03;4.88;;;2.17;;
2868;SDS011;1442;47.448;8.582;2023-04-25T08:31:31;2.25;;;1.63;;
2868;SDS011;1442;47.448;8.582;2023-04-25T08:33:59;5.30;;;1.80;;
2868;SDS011;1442;47.448;8.582;2023-04-25T08:36:27;2.63;;;1.75;;
2868;SDS011;1442;47.448;8.582;2023-04-25T08:38:55;2.38;;;1.73;;
2868;SDS011;1442;47.448;8.582;2023-04-25T08:41:22;2.20;;;1.80;;
2868;SDS011;1442;47.448;8.582;2023-04-25T08:43:50;2.95;;;1.98;;
2868;SDS011;1442;47.448;8.582;2023-04-25T08:46:18;6.13;;;1.70;;
2868;SDS011;1442;47.448;8.582;2023-04-25T08:48:46;4.25;;;1.58;;
2868;SDS011;1442;47.448;8.582;2023-04-25T08:51:15;4.68;;;1.48;;
2868;SDS011;1442;47.448;8.582;2023-04-25T08:53:42;2.38;;;1.50;;
2868;SDS011;1442;47.448;8.582;2023-04-25T08:56:10;3.17;;;1.90;;
2868;SDS011;1442;47.448;8.582;2023-04-25T08:58:39;3.17;;;1.40;;
2868;SDS011;1442;47.448;8.582;2023-04-25T09:01:07;1.98;;;1.77;;
2868;SDS011;1442;47.448;8.582;2023-04-25T09:03:34;4.07;;;1.70;;
2868;SDS011;1442;47.448;8.582;2023-04-25T09:06:02;1.40;;;1.30;;
2868;SDS011;1442;47.448;8.582;2023-04-25T09:08:31;2.60;;;1.45;;
2868;SDS011;1442;47.448;8.582;2023-04-25T09:10:58;1.80;;;1.42;;
2868;SDS011;1442;47.448;8.582;2023-04-25T09:13:26;1.58;;;1.48;;
2868;SDS011;1442;47.448;8.582;2023-04-25T09:15:54;2.92;;;1.50;;
2868;SDS011;1442;47.448;8.582;2023-04-25T09:18:22;1.75;;;1.60;;
2868;SDS011;1442;47.448;8.582;2023-04-25T09:20:51;3.45;;;1.67;;
2868;SDS011;1442;47.448;8.582;2023-04-25T09:23:19;3.85;;;2.10;;
2868;SDS011;1442;47.448;8.582;2023-04-25T09:25:48;3.47;;;1.75;;
2868;SDS011;1442;47.448;8.582;2023-04-25T09:28:15;6.40;;;1.88;;
2868;SDS011;1442;47.448;8.582;2023-04-25T09:30:43;2.58;;;1.95;;
2868;SDS011;1442;47.448;8.582;2023-04-25T09:33:12;3.00;;;1.58;;
2868;SDS011;1442;47.448;8.582;2023-04-25T09:35:40;2.20;;;1.67;;
2868;SDS011;1442;47.448;8.582;2023-04-25T09:38:08;3.20;;;1.33;;
2868;SDS011;1442;47.448;8.582;2023-04-25T09:40:38;1.63;;;1.23;;
2868;SDS011;1442;47.448;8.582;2023-04-25T09:43:09;1.48;;;1.27;;
2868;SDS011;1442;47.448;8.582;2023-04-25T09:45:41;1.13;;;0.90;;
2868;SDS011;1442;47.448;8.582;2023-04-25T09:48:10;1.50;;;1.13;;
2868;SDS011;1442;47.448;8.582;2023-04-25T09:50:37;1.92;;;1.02;;
2868;SDS011;1442;47.448;8.582;2023-04-25T09:53:05;3.85;;;1.10;;
2868;SDS011;1442;47.448;8.582;2023-04-25T09:55:33;1.40;;;1.10;;
2868;SDS011;1442;47.448;8.582;2023-04-25T09:58:03;0.80;;;0.77;;
2868;SDS011;1442;47.448;8.582;2023-04-25T10:00:33;1.10;;;0.90;;
2868;SDS011;1442;47.448;8.582;2023-04-25T10:03:00;1.63;;;0.77;;
2868;SDS011;1442;47.448;8.582;2023-04-25T10:05:30;2.30;;;1.10;;
2868;SDS011;1442;47.448;8.582;2023-04-25T10:07:58;0.90;;;0.70;;
2868;SDS011;1442;47.448;8.582;2023-04-25T10:10:25;1.08;;;0.98;;
2868;SDS011;1442;47.448;8.582;2023-04-25T10:12:53;2.92;;;0.88;;
2868;SDS011;1442;47.448;8.582;2023-04-25T10:15:21;4.60;;;0.70;;
2868;SDS011;1442;47.448;8.582;2023-04-25T10:17:49;0.70;;;0.70;;
2868;SDS011;1442;47.448;8.582;2023-04-25T10:20:17;1.35;;;1.00;;
2868;SDS011;1442;47.448;8.582;2023-04-25T10:22:44;0.77;;;0.73;;
2868;SDS011;1442;47.448;8.582;2023-04-25T10:25:13;0.85;;;0.77;;
2868;SDS011;1442;47.448;8.582;2023-04-25T10:27:41;0.90;;;0.80;;
2868;SDS011;1442;47.448;8.582;2023-04-25T10:30:08;0.60;;;0.60;;
2868;SDS011;1442;47.448;8.582;2023-04-25T10:32:37;1.00;;;0.93;;
2868;SDS011;1442;47.448;8.582;2023-04-25T10:35:12;1.08;;;0.82;;
2868;SDS011;1442;47.448;8.582;2023-04-25T10:40:22;1.08;;;0.90;;
2868;SDS011;1442;47.448;8.582;2023-04-25T10:42:51;10.93;;;1.50;;
2868;SDS011;1442;47.448;8.582;2023-04-25T10:45:18;1.35;;;0.93;;
2868;SDS011;1442;47.448;8.582;2023-04-25T10:47:46;1.02;;;0.75;;
2868;SDS011;1442;47.448;8.582;2023-04-25T10:50:15;4.43;;;0.80;;
2868;SDS011;1442;47.448;8.582;2023-04-25T10:52:42;2.00;;;1.00;;
2868;SDS011;1442;47.448;8.582;2023-04-25T10:55:10;1.60;;;1.00;;
2868;SDS011;1442;47.448;8.582;2023-04-25T10:57:38;0.80;;;0.75;;
2868;SDS011;1442;47.448;8.582;2023-04-25T11:00:07;3.17;;;1.13;;
2868;SDS011;1442;47.448;8.582;2023-04-25T11:02:42;1.73;;;1.63;;
2868;SDS011;1442;47.448;8.582;2023-04-25T11:05:10;1.58;;;0.98;;
2868;SDS011;1442;47.448;8.582;2023-04-25T11:07:42;1.48;;;0.70;;
2868;SDS011;1442;47.448;8.582;2023-04-25T11:10:11;2.05;;;0.80;;
2868;SDS011;1442;47.448;8.582;2023-04-25T11:12:38;1.02;;;0.82;;
2868;SDS011;1442;47.448;8.582;2023-04-25T11:15:06;2.80;;;1.10;;
2868;SDS011;1442;47.448;8.582;2023-04-25T11:17:33;3.83;;;1.33;;
2868;SDS011;1442;47.448;8.582;2023-04-25T11:20:00;1.75;;;0.60;;
2868;SDS011;1442;47.448;8.582;2023-04-25T11:22:31;1.75;;;0.95;;
2868;SDS011;1442;47.448;8.582;2023-04-25T11:25:00;2.05;;;1.02;;
2868;SDS011;1442;47.448;8.582;2023-04-25T11:27:31;2.33;;;0.90;;
2868;SDS011;1442;47.448;8.582;2023-04-25T11:29:58;0.77;;;0.70;;
2868;SDS011;1442;47.448;8.582;2023-04-25T11:32:25;1.85;;;1.00;;
2868;SDS011;1442;47.448;8.582;2023-04-25T11:34:52;1.50;;;0.90;;
2868;SDS011;1442;47.448;8.582;2023-04-25T11:37:19;2.15;;;1.00;;
2868;SDS011;1442;47.448;8.582;2023-04-25T11:39:47;1.67;;;1.00;;
2868;SDS011;1442;47.448;8.582;2023-04-25T11:42:15;0.98;;;0.80;;
2868;SDS011;1442;47.448;8.582;2023-04-25T11:44:42;1.35;;;0.80;;
2868;SDS011;1442;47.448;8.582;2023-04-25T11:47:10;1.75;;;0.93;;
2868;SDS011;1442;47.448;8.582;2023-04-25T11:49:37;0.95;;;0.70;;
2868;SDS011;1442;47.448;8.582;2023-04-25T11:52:06;1.00;;;0.80;;
2868;SDS011;1442;47.448;8.582;2023-04-25T11:54:34;1.30;;;0.93;;
2868;SDS011;1442;47.448;8.582;2023-04-25T11:57:02;1.98;;;1.23;;
2868;SDS011;1442;47.448;8.582;2023-04-25T11:59:30;0.90;;;0.80;;
2868;SDS011;1442;47.448;8.582;2023-04-25T12:01:57;8.38;;;1.02;;
2868;SDS011;1442;47.448;8.582;2023-04-25T12:04:29;1.73;;;1.25;;
2868;SDS011;1442;47.448;8.582;2023-04-25T12:06:58;1.00;;;0.80;;
2868;SDS011;1442;47.448;8.582;2023-04-25T12:09:30;4.43;;;1.10;;
2868;SDS011;1442;47.448;8.582;2023-04-25T12:11:58;1.00;;;0.90;;
2868;SDS011;1442;47.448;8.582;2023-04-25T12:14:27;1.48;;;1.00;;
2868;SDS011;1442;47.448;8.582;2023-04-25T12:16:57;1.75;;;0.95;;
2868;SDS011;1442;47.448;8.582;2023-04-25T12:19:24;2.10;;;1.10;;
2868;SDS011;1442;47.448;8.582;2023-04-25T12:21:52;3.30;;;0.98;;
2868;SDS011;1442;47.448;8.582;2023-04-25T12:24:21;2.35;;;1.17;;
2868;SDS011;1442;47.448;8.582;2023-04-25T12:26:50;1.40;;;1.02;;
2868;SDS011;1442;47.448;8.582;2023-04-25T12:29:18;2.17;;;0.90;;
2868;SDS011;1442;47.448;8.582;2023-04-25T12:31:46;1.98;;;1.25;;
2868;SDS011;1442;47.448;8.582;2023-04-25T12:34:14;2.20;;;1.10;;
2868;SDS011;1442;47.448;8.582;2023-04-25T12:36:42;1.25;;;0.93;;
2868;SDS011;1442;47.448;8.582;2023-04-25T12:39:13;1.13;;;1.00;;
2868;SDS011;1442;47.448;8.582;2023-04-25T12:41:40;1.77;;;0.90;;
2868;SDS011;1442;47.448;8.582;2023-04-25T12:44:08;4.90;;;0.93;;
2868;SDS011;1442;47.448;8.582;2023-04-25T12:46:35;1.50;;;1.00;;
2868;SDS011;1442;47.448;8.582;2023-04-25T12:49:03;1.48;;;1.08;;
2868;SDS011;1442;47.448;8.582;2023-04-25T12:51:32;1.10;;;1.00;;
2868;SDS011;1442;47.448;8.582;2023-04-25T12:53:59;2.90;;;1.23;;
2868;SDS011;1442;47.448;8.582;2023-04-25T12:56:27;1.95;;;0.93;;
2868;SDS011;1442;47.448;8.582;2023-04-25T12:58:54;2.28;;;1.15;;
2868;SDS011;1442;47.448;8.582;2023-04-25T13:01:21;3.65;;;1.20;;
2868;SDS011;1442;47.448;8.582;2023-04-25T13:03:48;2.03;;;1.20;;
2868;SDS011;1442;47.448;8.582;2023-04-25T13:06:15;4.70;;;1.30;;
2868;SDS011;1442;47.448;8.582;2023-04-25T13:08:44;2.15;;;1.05;;
2868;SDS011;1442;47.448;8.582;2023-04-25T13:11:12;3.10;;;1.10;;
2868;SDS011;1442;47.448;8.582;2023-04-25T13:13:39;4.47;;;1.00;;
2868;SDS011;1442;47.448;8.582;2023-04-25T13:16:07;2.30;;;1.00;;
2868;SDS011;1442;47.448;8.582;2023-04-25T13:18:34;1.30;;;0.98;;
2868;SDS011;1442;47.448;8.582;2023-04-25T13:21:01;1.60;;;0.93;;
2868;SDS011;1442;47.448;8.582;2023-04-25T13:23:29;2.63;;;1.20;;
2868;SDS011;1442;47.448;8.582;2023-04-25T13:25:58;2.03;;;0.95;;
2868;SDS011;1442;47.448;8.582;2023-04-25T13:28:26;1.85;;;1.08;;
2868;SDS011;1442;47.448;8.582;2023-04-25T13:30:53;1.85;;;0.90;;
2868;SDS011;1442;47.448;8.582;2023-04-25T13:33:20;2.97;;;1.23;;
2868;SDS011;1442;47.448;8.582;2023-04-25T13:35:48;1.88;;;1.13;;
2868;SDS011;1442;47.448;8.582;2023-04-25T13:38:19;3.80;;;1.17;;
2868;SDS011;1442;47.448;8.582;2023-04-25T13:40:46;3.63;;;1.10;;
2868;SDS011;1442;47.448;8.582;2023-04-25T13:43:14;3.28;;;1.10;;
2868;SDS011;1442;47.448;8.582;2023-04-25T13:45:41;1.58;;;0.90;;
2868;SDS011;1442;47.448;8.582;2023-04-25T13:48:09;4.43;;;1.33;;
2868;SDS011;1442;47.448;8.582;2023-04-25T13:50:36;5.05;;;1.20;;
2868;SDS011;1442;47.448;8.582;2023-04-25T13:53:03;1.63;;;1.23;;
2868;SDS011;1442;47.448;8.582;2023-04-25T13:55:30;5.75;;;1.40;;
2868;SDS011;1442;47.448;8.582;2023-04-25T13:57:57;1.45;;;1.02;;
2868;SDS011;1442;47.448;8.582;2023-04-25T14:00:26;3.33;;;0.80;;
2868;SDS011;1442;47.448;8.582;2023-04-25T14:02:54;1.75;;;0.98;;
2868;SDS011;1442;47.448;8.582;2023-04-25T14:05:21;1.92;;;1.02;;
2868;SDS011;1442;47.448;8.582;2023-04-25T14:07:48;4.90;;;1.13;;
2868;SDS011;1442;47.448;8.582;2023-04-25T14:10:16;0.98;;;0.95;;
2868;SDS011;1442;47.448;8.582;2023-04-25T14:12:43;5.55;;;1.15;;
2868;SDS011;1442;47.448;8.582;2023-04-25T14:15:10;1.80;;;1.25;;
2868;SDS011;1442;47.448;8.582;2023-04-25T14:17:39;3.70;;;1.40;;
2868;SDS011;1442;47.448;8.582;2023-04-25T14:20:06;4.60;;;1.70;;
2868;SDS011;1442;47.448;8.582;2023-04-25T14:22:34;1.50;;;1.40;;
2868;SDS011;1442;47.448;8.582;2023-04-25T14:25:01;1.63;;;1.50;;
2868;SDS011;1442;47.448;8.582;2023-04-25T14:27:29;4.95;;;1.65;;
2868;SDS011;1442;47.448;8.582;2023-04-25T14:29:56;11.63;;;1.83;;
2868;SDS011;1442;47.448;8.582;2023-04-25T14:32:23;6.78;;;1.85;;
2868;SDS011;1442;47.448;8.582;2023-04-25T14:34:51;4.38;;;1.55;;
2868;SDS011;1442;47.448;8.582;2023-04-25T14:37:18;3.50;;;1.83;;
2868;SDS011;1442;47.448;8.582;2023-04-25T14:39:46;2.88;;;1.42;;
2868;SDS011;1442;47.448;8.582;2023-04-25T14:42:13;4.18;;;1.40;;
2868;SDS011;1442;47.448;8.582;2023-04-25T14:44:40;5.53;;;1.30;;
2868;SDS011;1442;47.448;8.582;2023-04-25T14:47:07;4.60;;;1.50;;
2868;SDS011;1442;47.448;8.582;2023-04-25T14:49:34;2.05;;;1.40;;
2868;SDS011;1442;47.448;8.582;2023-04-25T14:52:03;4.10;;;1.70;;
2868;SDS011;1442;47.448;8.582;2023-04-25T14:54:30;3.55;;;1.73;;
2868;SDS011;1442;47.448;8.582;2023-04-25T14:56:57;3.00;;;1.58;;
2868;SDS011;1442;47.448;8.582;2023-04-25T14:59:25;2.60;;;1.48;;
2868;SDS011;1442;47.448;8.582;2023-04-25T15:01:53;3.47;;;1.50;;
2868;SDS011;1442;47.448;8.582;2023-04-25T15:04:20;4.30;;;1.50;;
2868;SDS011;1442;47.448;8.582;2023-04-25T15:06:47;4.82;;;1.17;;
2868;SDS011;1442;47.448;8.582;2023-04-25T15:09:15;3.17;;;1.40;;
2868;SDS011;1442;47.448;8.582;2023-04-25T15:11:43;1.95;;;1.30;;
2868;SDS011;1442;47.448;8.582;2023-04-25T15:14:10;4.78;;;1.10;;
2868;SDS011;1442;47.448;8.582;2023-04-25T15:16:37;1.13;;;1.00;;
2868;SDS011;1442;47.448;8.582;2023-04-25T15:19:04;1.63;;;1.00;;
2868;SDS011;1442;47.448;8.582;2023-04-25T15:21:32;1.08;;;0.98;;
2868;SDS011;1442;47.448;8.582;2023-04-25T15:23:59;2.08;;;1.00;;
2868;SDS011;1442;47.448;8.582;2023-04-25T15:26:28;4.97;;;1.23;;
2868;SDS011;1442;47.448;8.582;2023-04-25T15:28:55;1.65;;;1.27;;
2868;SDS011;1442;47.448;8.582;2023-04-25T15:31:22;2.35;;;1.15;;
2868;SDS011;1442;47.448;8.582;2023-04-25T15:33:50;6.25;;;1.90;;